Time;durP1;ratioP1;P1;durP2;ratioP2;P2;SDS_P1;SDS_P2;PMS_P1;PMS_P2;Temp;Humidity;BMP_temperature;BMP_pressure;BME280_temperature;BME280_humidity;BME280_pressure;Samples;Min_cycle;Max_cycle;Signal;HPM_P1;HPM_P2
2022/03/28 00:00:09;;;;;;;28.10;6.03;;;;;;;;;;5007190;28;100791;-73
2022/03/28 00:02:40;;;;;;;31.35;5.80;;;;;;;;;;5012101;28;100669;-73
2022/03/28 00:05:07;;;;;;;38.97;6.93;;;;;;;;;;5008902;28;100690;-73
2022/03/28 00:07:33;;;;;;;29.67;5.72;;;;;;;;;;5006687;28;99604;-73
2022/03/28 00:10:00;;;;;;;26.55;6.57;;;;;;;;;;5008347;28;98610;-73
2022/03/28 00:12:26;;;;;;;29.55;7.15;;;;;;;;;;5007931;28;100816;-73
2022/03/28 00:14:53;;;;;;;25.85;6.53;;;;;;;;;;5008052;28;99931;-73
2022/03/28 00:17:19;;;;;;;30.48;6.78;;;;;;;;;;5008549;28;98521;-73
2022/03/28 00:19:45;;;;;;;31.02;6.25;;;;;;;;;;5008163;28;99314;-73
2022/03/28 00:22:12;;;;;;;35.08;7.15;;;;;;;;;;5006529;28;99164;-73
2022/03/28 00:24:39;;;;;;;27.63;6.05;;;;;;;;;;5012038;28;98522;-73
2022/03/28 00:27:05;;;;;;;29.02;5.85;;;;;;;;;;5007580;28;100294;-73
2022/03/28 00:29:31;;;;;;;22.70;5.70;;;;;;;;;;5008292;28;98659;-73
2022/03/28 00:31:58;;;;;;;31.27;5.93;;;;;;;;;;5008234;28;98561;-73
2022/03/28 00:34:24;;;;;;;25.13;6.07;;;;;;;;;;5008168;28;100344;-73
2022/03/28 00:36:51;;;;;;;28.55;6.75;;;;;;;;;;5007143;28;101044;-73
2022/03/28 00:39:19;;;;;;;26.45;6.13;;;;;;;;;;5008036;28;100132;-73
2022/03/28 00:41:50;;;;;;;28.00;7.20;;;;;;;;;;5007894;28;100397;-73
2022/03/28 00:44:16;;;;;;;35.33;7.18;;;;;;;;;;5011385;28;98846;-73
2022/03/28 00:46:43;;;;;;;29.92;6.30;;;;;;;;;;5007230;28;102057;-73
2022/03/28 00:49:09;;;;;;;20.52;5.53;;;;;;;;;;5007000;28;98663;-73
2022/03/28 00:51:37;;;;;;;31.75;6.97;;;;;;;;;;5008385;28;100111;-73
2022/03/28 00:54:04;;;;;;;28.88;8.00;;;;;;;;;;5008110;28;99511;-73
2022/03/28 00:56:30;;;;;;;30.70;6.85;;;;;;;;;;5009061;28;100104;-73
2022/03/28 00:58:58;;;;;;;26.83;7.05;;;;;;;;;;5011806;28;99245;-73
2022/03/28 01:01:25;;;;;;;37.00;7.40;;;;;;;;;;5010728;28;100426;-73
2022/03/28 01:03:52;;;;;;;32.60;7.40;;;;;;;;;;5010710;28;98577;-73
2022/03/28 01:06:18;;;;;;;29.48;6.78;;;;;;;;;;5014832;28;99975;-73
2022/03/28 01:08:45;;;;;;;30.27;7.32;;;;;;;;;;5010791;28;99074;-73
2022/03/28 01:11:11;;;;;;;21.50;6.90;;;;;;;;;;5011080;28;99142;-73
2022/03/28 01:13:39;;;;;;;29.85;7.13;;;;;;;;;;5010822;28;99411;-73
2022/03/28 01:16:05;;;;;;;26.42;8.00;;;;;;;;;;5010309;28;98546;-73
2022/03/28 01:18:32;;;;;;;34.50;8.55;;;;;;;;;;5011851;28;99310;-73
2022/03/28 01:20:59;;;;;;;35.20;9.30;;;;;;;;;;5010499;28;100163;-73
2022/03/28 01:23:26;;;;;;;31.63;7.95;;;;;;;;;;5010555;28;98579;-73
2022/03/28 01:25:53;;;;;;;29.98;8.35;;;;;;;;;;5009831;28;100293;-73
2022/03/28 01:28:20;;;;;;;22.95;7.35;;;;;;;;;;5014101;28;100183;-73
2022/03/28 01:30:47;;;;;;;21.60;6.97;;;;;;;;;;5011021;28;99955;-73
2022/03/28 01:33:14;;;;;;;27.70;8.07;;;;;;;;;;5009554;28;100114;-73
2022/03/28 01:35:41;;;;;;;26.88;8.50;;;;;;;;;;5010640;28;99393;-73
2022/03/28 01:38:09;;;;;;;30.35;7.50;;;;;;;;;;5010891;28;100067;-73
2022/03/28 01:40:37;;;;;;;37.15;9.00;;;;;;;;;;5010029;28;99406;-73
2022/03/28 01:43:04;;;;;;;26.50;7.32;;;;;;;;;;5011062;28;97818;-73
2022/03/28 01:45:30;;;;;;;29.63;7.97;;;;;;;;;;5009625;28;99182;-73
2022/03/28 01:47:57;;;;;;;35.50;8.10;;;;;;;;;;5010153;28;100276;-73
2022/03/28 01:50:23;;;;;;;31.35;7.47;;;;;;;;;;5013994;28;99359;-73
2022/03/28 01:52:50;;;;;;;29.42;7.78;;;;;;;;;;5009517;28;100307;-73
2022/03/28 01:55:16;;;;;;;24.48;7.18;;;;;;;;;;5010953;28;98545;-73
2022/03/28 01:57:43;;;;;;;30.67;9.77;;;;;;;;;;5010272;28;100210;-73
2022/03/28 02:00:11;;;;;;;21.23;6.93;;;;;;;;;;5009863;28;100812;-73
2022/03/28 02:02:38;;;;;;;26.85;7.72;;;;;;;;;;5010262;28;99304;-73
2022/03/28 02:05:05;;;;;;;21.70;7.40;;;;;;;;;;5011183;28;100392;-73
2022/03/28 02:07:33;;;;;;;26.38;8.27;;;;;;;;;;5009203;28;99947;-73
2022/03/28 02:09:59;;;;;;;29.45;8.23;;;;;;;;;;5010781;28;98717;-73
2022/03/28 02:12:26;;;;;;;26.75;7.50;;;;;;;;;;5012982;28;99973;-73
2022/03/28 02:14:52;;;;;;;24.67;8.02;;;;;;;;;;5010067;28;99449;-73
2022/03/28 02:17:19;;;;;;;29.63;9.77;;;;;;;;;;5009877;28;99750;-73
2022/03/28 02:19:45;;;;;;;32.15;8.93;;;;;;;;;;5010511;28;100483;-73
2022/03/28 02:22:12;;;;;;;26.60;8.73;;;;;;;;;;5009149;28;98653;-73
2022/03/28 02:24:39;;;;;;;27.60;8.00;;;;;;;;;;5010606;28;99807;-74
2022/03/28 02:27:06;;;;;;;23.00;8.75;;;;;;;;;;5009626;28;99523;-73
2022/03/28 02:29:33;;;;;;;28.50;9.20;;;;;;;;;;5010062;28;99625;-73
2022/03/28 02:32:00;;;;;;;28.85;8.70;;;;;;;;;;5013318;28;100095;-73
2022/03/28 02:34:27;;;;;;;25.92;11.32;;;;;;;;;;5010546;28;99017;-73
2022/03/28 02:36:53;;;;;;;28.30;9.52;;;;;;;;;;5008356;28;100021;-73
2022/03/28 02:39:19;;;;;;;28.25;9.07;;;;;;;;;;5009188;28;101083;-73
2022/03/28 02:41:46;;;;;;;19.52;8.70;;;;;;;;;;5009072;28;101044;-73
2022/03/28 02:44:12;;;;;;;23.95;8.40;;;;;;;;;;5010209;28;99871;-73
2022/03/28 02:46:39;;;;;;;30.52;10.00;;;;;;;;;;5009674;28;100359;-73
2022/03/28 02:49:05;;;;;;;26.02;11.02;;;;;;;;;;5008293;28;98552;-72
2022/03/28 02:51:31;;;;;;;30.77;10.57;;;;;;;;;;5009501;28;100183;-73
2022/03/28 02:53:58;;;;;;;28.88;9.10;;;;;;;;;;5011593;28;100283;-72
2022/03/28 02:56:24;;;;;;;18.35;10.57;;;;;;;;;;5008984;28;99820;-72
2022/03/28 02:58:51;;;;;;;20.05;10.85;;;;;;;;;;5008469;28;100192;-72
2022/03/28 03:01:17;;;;;;;30.92;10.80;;;;;;;;;;5009331;28;98538;-72
2022/03/28 03:03:44;;;;;;;26.17;11.45;;;;;;;;;;5007686;28;100032;-72
2022/03/28 03:06:10;;;;;;;23.02;12.07;;;;;;;;;;5006675;28;100239;-72
2022/03/28 03:08:36;;;;;;;30.77;11.77;;;;;;;;;;5009645;28;99187;-73
2022/03/28 03:11:03;;;;;;;22.48;12.20;;;;;;;;;;5007934;28;100335;-72
2022/03/28 03:13:29;;;;;;;22.55;11.82;;;;;;;;;;5007929;28;100539;-72
2022/03/28 03:15:56;;;;;;;23.25;12.02;;;;;;;;;;5011798;28;99191;-72
2022/03/28 03:18:26;;;;;;;24.80;10.90;;;;;;;;;;5007302;28;100532;-73
2022/03/28 03:20:52;;;;;;;21.95;11.82;;;;;;;;;;5008788;28;98111;-73
2022/03/28 03:23:19;;;;;;;25.27;12.13;;;;;;;;;;5007960;28;99353;-72
2022/03/28 03:25:45;;;;;;;19.77;11.65;;;;;;;;;;5007237;28;100228;-73
2022/03/28 03:28:11;;;;;;;19.25;11.43;;;;;;;;;;5008376;28;99386;-72
2022/03/28 03:30:39;;;;;;;19.88;12.50;;;;;;;;;;5008543;28;100435;-72
2022/03/28 03:33:07;;;;;;;25.95;12.82;;;;;;;;;;5007176;28;100341;-72
2022/03/28 03:35:33;;;;;;;26.52;13.20;;;;;;;;;;5008545;28;98578;-73
2022/03/28 03:38:00;;;;;;;20.02;12.50;;;;;;;;;;5010942;28;100304;-73
2022/03/28 03:40:26;;;;;;;21.65;12.38;;;;;;;;;;5008469;28;98580;-73
2022/03/28 03:42:52;;;;;;;26.70;14.27;;;;;;;;;;5007094;28;99986;-73
2022/03/28 03:45:19;;;;;;;22.73;12.57;;;;;;;;;;5007932;28;99228;-73
2022/03/28 03:47:45;;;;;;;23.35;11.52;;;;;;;;;;5007736;28;99021;-73
2022/03/28 03:50:12;;;;;;;27.45;12.35;;;;;;;;;;5008118;28;100625;-73
2022/03/28 03:52:38;;;;;;;27.17;12.07;;;;;;;;;;5005666;28;101059;-73
2022/03/28 03:55:06;;;;;;;20.55;11.82;;;;;;;;;;5008386;28;98565;-73
2022/03/28 03:57:33;;;;;;;18.52;11.73;;;;;;;;;;5006957;28;100012;-73
2022/03/28 03:59:59;;;;;;;21.55;11.68;;;;;;;;;;5011158;28;99334;-73
2022/03/28 04:02:37;;;;;;;23.38;11.13;;;;;;;;;;5007662;28;98633;-73
2022/03/28 04:05:04;;;;;;;22.50;12.57;;;;;;;;;;5008436;28;100174;-73
2022/03/28 04:07:30;;;;;;;21.38;13.10;;;;;;;;;;5006211;28;98538;-73
2022/03/28 04:10:01;;;;;;;32.88;15.32;;;;;;;;;;5008801;28;100874;-73
2022/03/28 04:12:27;;;;;;;19.00;11.45;;;;;;;;;;5006993;28;99462;-73
2022/03/28 04:14:58;;;;;;;20.40;11.85;;;;;;;;;;5007562;28;98500;-73
2022/03/28 04:17:25;;;;;;;36.72;15.93;;;;;;;;;;5002897;28;99450;-73
2022/03/28 04:19:52;;;;;;;35.03;16.40;;;;;;;;;;5007809;28;101721;-73
2022/03/28 04:22:18;;;;;;;32.20;13.85;;;;;;;;;;5009901;28;99175;-73
2022/03/28 04:24:45;;;;;;;25.90;14.55;;;;;;;;;;5007195;28;100428;-73
2022/03/28 04:27:11;;;;;;;28.52;14.95;;;;;;;;;;5006946;28;98585;-73
2022/03/28 04:29:38;;;;;;;31.80;13.82;;;;;;;;;;5006340;28;99334;-73
2022/03/28 04:32:04;;;;;;;28.58;13.77;;;;;;;;;;5006700;28;100032;-73
2022/03/28 04:34:31;;;;;;;45.30;15.50;;;;;;;;;;5006896;28;98164;-73
2022/03/28 04:36:57;;;;;;;38.92;14.10;;;;;;;;;;5007890;28;99329;-73
2022/03/28 04:39:23;;;;;;;21.23;12.38;;;;;;;;;;5007327;28;100214;-73
2022/03/28 04:41:50;;;;;;;22.75;11.02;;;;;;;;;;5008623;28;99579;-73
2022/03/28 04:44:16;;;;;;;37.60;13.15;;;;;;;;;;5007029;28;100180;-73
2022/03/28 04:46:43;;;;;;;28.25;13.57;;;;;;;;;;5006888;28;98534;-73
2022/03/28 04:49:13;;;;;;;26.27;14.20;;;;;;;;;;5007024;28;100225;-72
2022/03/28 04:51:40;;;;;;;38.08;11.70;;;;;;;;;;5006108;28;99495;-73
2022/03/28 04:54:06;;;;;;;37.28;13.63;;;;;;;;;;5007708;28;99047;-72
2022/03/28 04:56:35;;;;;;;31.20;12.93;;;;;;;;;;5006031;28;100396;-73
2022/03/28 04:59:04;;;;;;;54.33;13.27;;;;;;;;;;5008273;28;100166;-73
2022/03/28 05:01:31;;;;;;;56.35;11.68;;;;;;;;;;5006009;28;98649;-74
2022/03/28 05:03:58;;;;;;;22.73;11.50;;;;;;;;;;5010372;28;99808;-73
2022/03/28 05:06:24;;;;;;;85.53;12.40;;;;;;;;;;5004928;28;100155;-74
2022/03/28 05:08:50;;;;;;;80.75;15.00;;;;;;;;;;5007336;28;100755;-73
2022/03/28 05:11:22;;;;;;;50.30;14.73;;;;;;;;;;5004581;28;100230;-73
2022/03/28 05:13:49;;;;;;;52.42;13.93;;;;;;;;;;5007515;28;98512;-73
2022/03/28 05:16:16;;;;;;;71.07;16.40;;;;;;;;;;5005812;28;100027;-73
2022/03/28 05:18:43;;;;;;;122.88;20.02;;;;;;;;;;5006368;28;100568;-73
2022/03/28 05:21:09;;;;;;;54.70;13.65;;;;;;;;;;5007018;28;98780;-73
2022/03/28 05:23:35;;;;;;;80.00;15.05;;;;;;;;;;5006760;28;100460;-73
2022/03/28 05:26:02;;;;;;;103.93;17.08;;;;;;;;;;5010516;28;100918;-73
2022/03/28 05:28:29;;;;;;;84.70;15.35;;;;;;;;;;5006502;28;99279;-73
2022/03/28 05:30:57;;;;;;;137.23;18.25;;;;;;;;;;5004841;28;100372;-73
2022/03/28 05:33:23;;;;;;;268.70;19.27;;;;;;;;;;5007121;28;98538;-73
2022/03/28 05:35:50;;;;;;;102.43;15.70;;;;;;;;;;5006445;28;100723;-73
2022/03/28 05:38:18;;;;;;;142.60;19.25;;;;;;;;;;5006348;28;100595;-73
2022/03/28 05:40:44;;;;;;;192.70;17.05;;;;;;;;;;5006104;28;98748;-73
2022/03/28 05:43:10;;;;;;;149.38;19.70;;;;;;;;;;5007283;28;99135;-73
2022/03/28 05:45:37;;;;;;;130.02;16.17;;;;;;;;;;5008086;28;100204;-72
2022/03/28 05:48:03;;;;;;;86.55;17.15;;;;;;;;;;5012578;28;100130;-71
2022/03/28 05:50:30;;;;;;;69.95;17.02;;;;;;;;;;5008237;28;100266;-72
2022/03/28 05:52:56;;;;;;;111.43;17.63;;;;;;;;;;5007167;28;99284;-72
2022/03/28 05:55:23;;;;;;;107.10;18.95;;;;;;;;;;5008861;28;100071;-72
2022/03/28 05:57:49;;;;;;;98.63;19.80;;;;;;;;;;5004380;28;100247;-70
2022/03/28 06:00:15;;;;;;;121.00;21.45;;;;;;;;;;5002734;28;100182;-71
2022/03/28 06:02:42;;;;;;;79.55;19.70;;;;;;;;;;5009662;28;99017;-72
2022/03/28 06:05:10;;;;;;;61.75;16.42;;;;;;;;;;5010013;28;99578;-72
2022/03/28 06:07:36;;;;;;;63.95;15.93;;;;;;;;;;5007647;28;98883;-72
2022/03/28 06:10:03;;;;;;;49.22;17.75;;;;;;;;;;5012698;28;100056;-72
2022/03/28 06:12:29;;;;;;;68.25;19.55;;;;;;;;;;5010567;28;99608;-72
2022/03/28 06:14:55;;;;;;;124.50;18.05;;;;;;;;;;5009152;28;99397;-71
2022/03/28 06:17:23;;;;;;;90.78;19.52;;;;;;;;;;5009509;28;99391;-72
2022/03/28 06:19:49;;;;;;;106.22;19.35;;;;;;;;;;5008969;28;99391;-72
2022/03/28 06:22:16;;;;;;;102.68;21.45;;;;;;;;;;5009582;28;100824;-71
2022/03/28 06:24:43;;;;;;;124.00;20.08;;;;;;;;;;5009726;28;99162;-72
2022/03/28 06:27:09;;;;;;;111.35;17.42;;;;;;;;;;5007551;28;98811;-72
2022/03/28 06:29:35;;;;;;;156.55;21.85;;;;;;;;;;5007081;28;99237;-71
2022/03/28 06:32:02;;;;;;;92.90;15.15;;;;;;;;;;5011449;28;100256;-72
2022/03/28 06:34:30;;;;;;;163.77;17.52;;;;;;;;;;5009616;28;99128;-72
2022/03/28 06:36:57;;;;;;;164.98;19.98;;;;;;;;;;5010217;28;99844;-72
2022/03/28 06:39:23;;;;;;;226.13;19.42;;;;;;;;;;5009194;28;98629;-72
2022/03/28 06:41:50;;;;;;;88.95;18.05;;;;;;;;;;5009031;28;100325;-72
2022/03/28 06:44:18;;;;;;;103.15;21.67;;;;;;;;;;5008397;28;100766;-72
2022/03/28 06:46:45;;;;;;;109.35;19.70;;;;;;;;;;5009927;28;98696;-72
2022/03/28 06:49:11;;;;;;;85.93;20.88;;;;;;;;;;5008785;28;99629;-72
2022/03/28 06:51:38;;;;;;;83.25;19.17;;;;;;;;;;5012667;28;99497;-72
2022/03/28 06:54:05;;;;;;;92.18;18.92;;;;;;;;;;5008617;28;99214;-72
2022/03/28 06:56:32;;;;;;;145.82;22.00;;;;;;;;;;5008577;28;99379;-72
2022/03/28 06:59:00;;;;;;;131.20;18.25;;;;;;;;;;4989937;28;98571;-72
2022/03/28 07:01:26;;;;;;;92.93;19.85;;;;;;;;;;4996872;28;99968;-72
2022/03/28 07:03:55;;;;;;;59.13;20.33;;;;;;;;;;5008398;28;99434;-73
2022/03/28 07:06:21;;;;;;;57.10;19.95;;;;;;;;;;5009135;28;98572;-73
2022/03/28 07:08:47;;;;;;;96.72;22.17;;;;;;;;;;5007114;28;100033;-72
2022/03/28 07:11:14;;;;;;;60.65;18.58;;;;;;;;;;5008906;28;99910;-72
2022/03/28 07:13:40;;;;;;;52.22;16.13;;;;;;;;;;5012421;28;99557;-73
2022/03/28 07:16:07;;;;;;;81.68;17.88;;;;;;;;;;5008055;28;100437;-72
2022/03/28 07:18:34;;;;;;;151.25;17.42;;;;;;;;;;5009399;27;98620;-73
2022/03/28 07:21:00;;;;;;;103.43;17.73;;;;;;;;;;5009380;28;99307;-72
2022/03/28 07:23:28;;;;;;;149.68;18.67;;;;;;;;;;5007430;28;99923;-73
2022/03/28 07:25:56;;;;;;;63.72;17.85;;;;;;;;;;5009514;28;97790;-73
2022/03/28 07:28:22;;;;;;;46.13;15.30;;;;;;;;;;5008719;28;99152;-73
2022/03/28 07:30:48;;;;;;;60.55;14.27;;;;;;;;;;5007669;28;99905;-73
2022/03/28 07:33:15;;;;;;;143.55;16.95;;;;;;;;;;5002959;28;99638;-73
2022/03/28 07:35:41;;;;;;;47.25;14.30;;;;;;;;;;4991924;28;100759;-72
2022/03/28 07:38:08;;;;;;;69.32;15.05;;;;;;;;;;4988191;28;98589;-73
2022/03/28 07:40:36;;;;;;;64.60;13.98;;;;;;;;;;4989040;28;99903;-72
2022/03/28 07:43:02;;;;;;;36.38;15.10;;;;;;;;;;4995003;28;100333;-72
2022/03/28 07:45:28;;;;;;;46.30;15.55;;;;;;;;;;5007489;28;98865;-72
2022/03/28 07:47:55;;;;;;;30.05;15.52;;;;;;;;;;5008746;28;100075;-72
2022/03/28 07:50:21;;;;;;;50.28;14.43;;;;;;;;;;5008704;28;98769;-72
2022/03/28 07:52:50;;;;;;;27.58;12.43;;;;;;;;;;5018498;28;98652;-72
2022/03/28 07:55:17;;;;;;;26.23;14.20;;;;;;;;;;5028606;27;99611;-72
2022/03/28 07:57:43;;;;;;;75.03;13.73;;;;;;;;;;5021324;28;101092;-72
2022/03/28 08:00:11;;;;;;;91.55;13.90;;;;;;;;;;5007223;28;100347;-72
2022/03/28 08:02:53;;;;;;;27.13;12.95;;;;;;;;;;5008524;28;99558;-72
2022/03/28 08:05:20;;;;;;;48.35;14.13;;;;;;;;;;5007276;28;98494;-72
2022/03/28 08:07:47;;;;;;;25.33;13.80;;;;;;;;;;5007907;28;99946;-73
2022/03/28 08:10:14;;;;;;;31.73;14.55;;;;;;;;;;5007776;28;100220;-72
2022/03/28 08:12:42;;;;;;;22.90;13.85;;;;;;;;;;5008187;27;98993;-72
2022/03/28 08:15:09;;;;;;;21.73;14.05;;;;;;;;;;4998825;28;99080;-72
2022/03/28 08:17:36;;;;;;;34.58;14.65;;;;;;;;;;4987993;28;100188;-72
2022/03/28 08:20:03;;;;;;;22.30;13.55;;;;;;;;;;5004149;28;98855;-72
2022/03/28 08:22:36;;;;;;;30.08;13.75;;;;;;;;;;5026887;27;99775;-72
2022/03/28 08:25:03;;;;;;;19.42;12.95;;;;;;;;;;5027640;27;98554;-72
2022/03/28 08:27:30;;;;;;;41.00;12.65;;;;;;;;;;5027509;27;99064;-72
2022/03/28 08:29:56;;;;;;;18.92;11.18;;;;;;;;;;5013253;27;99242;-72
2022/03/28 08:32:22;;;;;;;19.92;10.98;;;;;;;;;;5007877;28;98977;-73
2022/03/28 08:34:50;;;;;;;16.25;11.23;;;;;;;;;;5007550;28;99497;-72
2022/03/28 08:37:17;;;;;;;24.27;11.80;;;;;;;;;;5002343;28;99656;-72
2022/03/28 08:39:45;;;;;;;22.13;12.07;;;;;;;;;;4988368;28;98661;-72
2022/03/28 08:42:14;;;;;;;23.73;12.57;;;;;;;;;;4990079;28;99484;-72
2022/03/28 08:44:41;;;;;;;17.33;11.90;;;;;;;;;;4987046;28;98518;-72
2022/03/28 08:47:10;;;;;;;20.70;11.50;;;;;;;;;;4995686;28;101039;-72
2022/03/28 08:49:36;;;;;;;21.17;11.18;;;;;;;;;;5004725;28;100320;-72
2022/03/28 08:52:04;;;;;;;17.25;11.60;;;;;;;;;;5005430;28;99300;-72
2022/03/28 08:54:31;;;;;;;16.48;11.65;;;;;;;;;;5006125;28;99834;-72
2022/03/28 08:56:58;;;;;;;15.68;10.50;;;;;;;;;;5006996;28;100707;-72
2022/03/28 08:59:24;;;;;;;15.57;12.27;;;;;;;;;;5007251;28;99340;-72
2022/03/28 09:01:50;;;;;;;19.98;11.38;;;;;;;;;;5010551;28;99990;-72
2022/03/28 09:04:17;;;;;;;18.75;11.95;;;;;;;;;;5007823;28;97770;-72
2022/03/28 09:06:43;;;;;;;16.65;11.55;;;;;;;;;;5007242;28;99399;-72
2022/03/28 09:09:19;;;;;;;16.02;11.10;;;;;;;;;;5005913;28;100927;-72
2022/03/28 09:11:47;;;;;;;18.15;11.68;;;;;;;;;;5007188;28;99236;-72
2022/03/28 09:14:24;;;;;;;19.50;10.50;;;;;;;;;;5006950;28;99683;-72
2022/03/28 09:17:04;;;;;;;21.27;11.07;;;;;;;;;;5011384;28;100211;-73
2022/03/28 09:19:41;;;;;;;13.60;10.23;;;;;;;;;;5010277;28;98600;-72
2022/03/28 09:22:12;;;;;;;15.80;11.05;;;;;;;;;;5010834;28;100065;-72
2022/03/28 09:24:39;;;;;;;17.77;11.97;;;;;;;;;;5013106;28;100364;-72
2022/03/28 09:27:10;;;;;;;15.43;10.85;;;;;;;;;;5010838;28;99476;-72
2022/03/28 09:29:53;;;;;;;14.60;10.20;;;;;;;;;;5010063;28;99434;-72
2022/03/28 09:32:23;;;;;;;15.68;9.10;;;;;;;;;;5010580;28;98524;-72
2022/03/28 09:35:07;;;;;;;14.30;10.10;;;;;;;;;;5011458;28;100104;-72
2022/03/28 09:37:52;;;;;;;18.17;10.07;;;;;;;;;;5001674;28;101599;-72
2022/03/28 09:40:22;;;;;;;22.50;10.23;;;;;;;;;;4989977;28;98539;-72
2022/03/28 09:42:48;;;;;;;16.38;9.85;;;;;;;;;;4990309;28;99977;-72
2022/03/28 09:45:22;;;;;;;14.88;9.88;;;;;;;;;;4989856;28;100284;-72
2022/03/28 09:47:55;;;;;;;11.27;9.30;;;;;;;;;;5014748;28;99023;-72
2022/03/28 09:50:42;;;;;;;12.43;8.80;;;;;;;;;;5009988;28;100880;-72
2022/03/28 09:53:31;;;;;;;13.00;9.20;;;;;;;;;;5011092;28;98620;-72
2022/03/28 09:55:59;;;;;;;15.73;9.82;;;;;;;;;;5011597;28;100307;-72
2022/03/28 09:58:46;;;;;;;14.25;9.63;;;;;;;;;;5009794;28;99139;-72
2022/03/28 10:01:13;;;;;;;22.15;9.20;;;;;;;;;;5011062;28;98580;-73
2022/03/28 10:03:40;;;;;;;16.42;9.35;;;;;;;;;;5010667;28;99339;-72
2022/03/28 10:06:09;;;;;;;12.70;8.88;;;;;;;;;;5009808;28;99708;-72
2022/03/28 10:08:36;;;;;;;15.00;8.43;;;;;;;;;;5010848;28;98547;-73
2022/03/28 10:11:02;;;;;;;12.15;9.00;;;;;;;;;;5014278;28;99203;-73
2022/03/28 10:13:30;;;;;;;11.63;8.70;;;;;;;;;;5009760;28;98563;-72
2022/03/28 10:15:58;;;;;;;15.27;8.88;;;;;;;;;;5010875;28;99886;-72
2022/03/28 10:18:31;;;;;;;17.13;8.07;;;;;;;;;;5009586;28;100190;-72
2022/03/28 10:21:00;;;;;;;19.00;8.90;;;;;;;;;;5010970;28;97851;-73
2022/03/28 10:23:28;;;;;;;13.02;8.00;;;;;;;;;;5010208;28;99074;-72
2022/03/28 10:25:56;;;;;;;14.48;8.90;;;;;;;;;;5009756;28;99301;-72
2022/03/28 10:28:23;;;;;;;15.27;9.20;;;;;;;;;;5008792;28;99378;-72
2022/03/28 10:31:06;;;;;;;20.80;8.75;;;;;;;;;;5010933;28;99896;-72
2022/03/28 10:33:52;;;;;;;;;;;;;;;;;;5013268;28;100445;-72
2022/03/28 10:36:27;;;;;;;19.15;9.90;;;;;;;;;;5010798;28;129702;-72
2022/03/28 10:38:57;;;;;;;15.35;9.38;;;;;;;;;;5010083;28;99798;-72
2022/03/28 10:41:25;;;;;;;18.85;9.52;;;;;;;;;;5009532;28;99411;-72
2022/03/28 10:43:51;;;;;;;16.15;9.07;;;;;;;;;;5010651;28;99933;-72
2022/03/28 10:46:19;;;;;;;14.77;9.05;;;;;;;;;;5008216;28;98605;-72
2022/03/28 10:48:46;;;;;;;22.50;9.88;;;;;;;;;;4989573;28;98611;-71
2022/03/28 10:51:13;;;;;;;12.20;7.68;;;;;;;;;;4990714;28;99217;-72
2022/03/28 10:53:46;;;;;;;12.95;9.05;;;;;;;;;;5002651;28;100235;-73
2022/03/28 10:56:13;;;;;;;16.10;10.20;;;;;;;;;;5012591;28;98570;-73
2022/03/28 10:58:41;;;;;;;15.93;7.93;;;;;;;;;;5009713;27;99820;-73
2022/03/28 11:01:08;;;;;;;17.20;9.75;;;;;;;;;;5014915;28;98661;-72
2022/03/28 11:03:35;;;;;;;8.88;6.82;;;;;;;;;;5029567;27;99000;-72
2022/03/28 11:06:02;;;;;;;17.90;10.27;;;;;;;;;;5028045;27;100289;-72
2022/03/28 11:08:30;;;;;;;13.77;8.90;;;;;;;;;;5026181;27;99734;-72
2022/03/28 11:11:13;;;;;;;17.92;10.70;;;;;;;;;;5028902;27;99309;-72
2022/03/28 11:13:39;;;;;;;17.70;9.80;;;;;;;;;;5028812;27;99441;-71
2022/03/28 11:16:05;;;;;;;18.40;8.90;;;;;;;;;;5032764;27;98530;-72
2022/03/28 11:18:32;;;;;;;18.75;10.45;;;;;;;;;;5025049;27;101400;-71
2022/03/28 11:21:08;;;;;;;20.27;9.93;;;;;;;;;;5029180;28;98502;-72
2022/03/28 11:23:37;;;;;;;22.17;11.27;;;;;;;;;;5017027;28;100111;-72
2022/03/28 11:26:04;;;;;;;22.40;10.88;;;;;;;;;;5008762;28;100809;-72
2022/03/28 11:28:32;;;;;;;15.40;10.45;;;;;;;;;;5008264;28;98546;-72
2022/03/28 11:31:07;;;;;;;15.70;10.32;;;;;;;;;;5008405;28;100868;-72
2022/03/28 11:33:42;;;;;;;18.83;10.98;;;;;;;;;;5008982;28;100597;-72
2022/03/28 11:36:10;;;;;;;21.35;10.75;;;;;;;;;;5008630;28;98029;-72
2022/03/28 11:38:44;;;;;;;33.22;11.45;;;;;;;;;;5011302;28;100889;-73
2022/03/28 11:41:12;;;;;;;21.40;10.70;;;;;;;;;;5007978;28;98672;-73
2022/03/28 11:43:39;;;;;;;18.70;11.05;;;;;;;;;;5007868;28;99526;-73
2022/03/28 11:46:14;;;;;;;26.20;12.82;;;;;;;;;;5009051;27;99535;-73
2022/03/28 11:48:50;;;;;;;20.70;10.98;;;;;;;;;;5008814;28;98617;-72
2022/03/28 11:51:16;;;;;;;21.25;10.85;;;;;;;;;;5007847;28;98985;-73
2022/03/28 11:53:43;;;;;;;25.15;11.38;;;;;;;;;;5008231;28;99442;-73
2022/03/28 11:56:10;;;;;;;23.10;11.95;;;;;;;;;;5008125;28;98565;-73
2022/03/28 11:58:36;;;;;;;21.42;10.90;;;;;;;;;;5008264;28;99273;-73
2022/03/28 12:01:10;;;;;;;18.98;9.70;;;;;;;;;;5011628;28;99511;-73
2022/03/28 12:03:38;;;;;;;22.55;10.07;;;;;;;;;;5009572;28;99056;-73
2022/03/28 12:06:05;;;;;;;27.88;10.63;;;;;;;;;;5007246;28;101347;-73
2022/03/28 12:08:32;;;;;;;26.17;12.50;;;;;;;;;;5006624;28;99278;-73
2022/03/28 12:10:58;;;;;;;22.17;10.73;;;;;;;;;;5008068;28;101884;-73
2022/03/28 12:13:25;;;;;;;22.35;10.63;;;;;;;;;;5007345;28;99550;-73
2022/03/28 12:15:52;;;;;;;29.08;10.73;;;;;;;;;;5008061;28;98599;-73
2022/03/28 12:18:19;;;;;;;27.48;11.80;;;;;;;;;;5006590;28;99011;-73
2022/03/28 12:20:47;;;;;;;27.67;11.20;;;;;;;;;;5007346;28;100514;-73
2022/03/28 12:23:15;;;;;;;20.65;10.40;;;;;;;;;;5010811;28;99000;-73
2022/03/28 12:25:42;;;;;;;21.33;10.75;;;;;;;;;;5006833;28;99585;-74
2022/03/28 12:28:10;;;;;;;35.60;14.48;;;;;;;;;;5007911;27;98549;-73
2022/03/28 12:30:44;;;;;;;23.85;11.18;;;;;;;;;;5016449;28;100319;-74
2022/03/28 12:33:11;;;;;;;27.38;11.20;;;;;;;;;;5026298;27;100893;-74
2022/03/28 12:35:39;;;;;;;22.98;11.95;;;;;;;;;;5013532;28;98601;-72
2022/03/28 12:38:07;;;;;;;28.67;11.68;;;;;;;;;;5007941;28;99300;-73
2022/03/28 12:40:35;;;;;;;21.75;10.90;;;;;;;;;;5006420;28;99601;-71
2022/03/28 12:43:04;;;;;;;22.02;10.20;;;;;;;;;;5007772;28;99093;-72
2022/03/28 12:45:31;;;;;;;16.75;10.20;;;;;;;;;;5010343;28;100390;-72
2022/03/28 12:48:01;;;;;;;26.40;11.45;;;;;;;;;;5006930;28;99003;-71
2022/03/28 12:50:28;;;;;;;19.90;10.55;;;;;;;;;;5008140;28;99650;-72
2022/03/28 12:53:29;;;;;;;27.08;11.02;;;;;;;;;;5010528;28;99785;-72
2022/03/28 12:56:14;;;;;;;21.45;9.98;;;;;;;;;;5008156;28;99122;-71
2022/03/28 12:58:42;;;;;;;21.50;9.90;;;;;;;;;;5010256;28;99249;-71
2022/03/28 13:01:09;;;;;;;19.25;9.65;;;;;;;;;;5010678;28;100499;-72
2022/03/28 13:03:37;;;;;;;24.42;9.38;;;;;;;;;;5011894;28;99519;-72
2022/03/28 13:06:05;;;;;;;20.60;8.90;;;;;;;;;;5010425;28;99937;-70
2022/03/28 13:08:37;;;;;;;24.80;8.90;;;;;;;;;;5005116;28;98963;-71
2022/03/28 13:11:10;;;;;;;22.17;9.68;;;;;;;;;;5002565;28;99241;-70
2022/03/28 13:13:38;;;;;;;19.48;8.23;;;;;;;;;;5000764;28;99979;-70
2022/03/28 13:16:05;;;;;;;22.85;9.48;;;;;;;;;;5003856;28;98566;-71
2022/03/28 13:18:33;;;;;;;20.13;8.73;;;;;;;;;;5009735;28;99145;-71
2022/03/28 13:21:00;;;;;;;20.30;9.00;;;;;;;;;;5007677;28;100379;-71
2022/03/28 13:23:28;;;;;;;19.77;8.65;;;;;;;;;;5009529;28;99342;-71
2022/03/28 13:25:55;;;;;;;25.65;9.25;;;;;;;;;;5000178;28;100899;-71
2022/03/28 13:28:23;;;;;;;24.63;8.63;;;;;;;;;;4994130;28;100298;-71
2022/03/28 13:30:52;;;;;;;21.73;8.65;;;;;;;;;;5005284;28;99934;-71
2022/03/28 13:33:19;;;;;;;18.00;7.75;;;;;;;;;;5006278;28;100457;-71
2022/03/28 13:35:47;;;;;;;21.05;8.15;;;;;;;;;;5008166;28;98588;-72
2022/03/28 13:38:14;;;;;;;19.63;8.32;;;;;;;;;;5010642;27;99299;-71
2022/03/28 13:40:42;;;;;;;15.77;8.00;;;;;;;;;;5005298;28;98934;-70
2022/03/28 13:43:09;;;;;;;23.95;7.32;;;;;;;;;;5006518;28;98649;-71
2022/03/28 13:45:36;;;;;;;22.90;7.82;;;;;;;;;;5000032;28;99450;-70
2022/03/28 13:48:04;;;;;;;17.73;6.60;;;;;;;;;;5013566;28;101064;-71
2022/03/28 13:50:31;;;;;;;20.17;7.68;;;;;;;;;;5010621;28;100245;-71
2022/03/28 13:53:17;;;;;;;21.83;7.60;;;;;;;;;;5010242;28;100720;-71
2022/03/28 13:55:44;;;;;;;16.75;7.88;;;;;;;;;;5008792;28;99696;-71
2022/03/28 13:58:10;;;;;;;18.25;7.95;;;;;;;;;;5010363;28;99099;-71
2022/03/28 14:00:36;;;;;;;24.90;8.77;;;;;;;;;;5005496;28;99342;-71
2022/03/28 14:03:07;;;;;;;24.20;7.53;;;;;;;;;;5004271;28;98542;-71
2022/03/28 14:05:34;;;;;;;17.35;8.02;;;;;;;;;;5009633;28;100386;-71
2022/03/28 14:08:01;;;;;;;16.17;7.43;;;;;;;;;;5009527;28;100210;-71
2022/03/28 14:10:27;;;;;;;21.00;7.57;;;;;;;;;;5009782;28;98699;-71
2022/03/28 14:12:54;;;;;;;19.23;6.68;;;;;;;;;;5011386;28;99794;-71
2022/03/28 14:15:20;;;;;;;21.55;7.72;;;;;;;;;;5010390;28;98534;-71
2022/03/28 14:17:47;;;;;;;17.95;7.25;;;;;;;;;;5007989;28;99323;-71
2022/03/28 14:20:15;;;;;;;17.48;5.85;;;;;;;;;;5009076;28;100566;-71